createdAt,value
2018-08-30T00:01:22.218Z,20.10
2018-08-30T00:03:51.348Z,20.10
2018-08-30T00:06:20.470Z,20.10
2018-08-30T00:08:49.547Z,20.10
2018-08-30T00:11:18.608Z,20.00
2018-08-30T00:13:47.695Z,19.90
2018-08-30T00:16:16.895Z,19.90
2018-08-30T00:18:45.950Z,19.90
2018-08-30T00:21:15.129Z,19.90
2018-08-30T00:23:44.306Z,19.90
2018-08-30T00:26:13.583Z,19.80
2018-08-30T00:28:42.646Z,19.80
2018-08-30T00:31:11.720Z,19.80
2018-08-30T00:33:40.761Z,19.90
2018-08-30T00:36:09.812Z,19.90
2018-08-30T00:38:38.894Z,19.80
2018-08-30T00:41:07.960Z,19.80
2018-08-30T00:43:37.159Z,19.70
2018-08-30T00:46:06.324Z,19.60
2018-08-30T00:48:35.360Z,19.50
2018-08-30T00:51:04.400Z,19.40
2018-08-30T00:53:57.848Z,19.40
2018-08-30T00:56:26.985Z,19.30
2018-08-30T00:58:56.043Z,19.10
2018-08-30T01:01:25.072Z,19.10
2018-08-30T01:03:54.119Z,19.10
2018-08-30T01:06:23.147Z,19.00
2018-08-30T01:09:13.448Z,19.00
2018-08-30T01:11:42.514Z,19.00
2018-08-30T01:14:11.714Z,19.00
2018-08-30T01:16:40.797Z,19.00
2018-08-30T01:19:09.883Z,19.00
2018-08-30T01:21:38.962Z,18.90
2018-08-30T01:24:08.006Z,19.00
2018-08-30T01:26:37.138Z,18.90
2018-08-30T01:29:06.212Z,18.90
2018-08-30T01:31:35.415Z,19.00
2018-08-30T01:34:04.622Z,19.00
2018-08-30T01:36:34.480Z,18.90
2018-08-30T01:39:04.076Z,18.90
2018-08-30T01:41:33.145Z,18.90
2018-08-30T01:44:02.265Z,18.90
2018-08-30T01:46:31.399Z,18.90
2018-08-30T01:49:10.715Z,18.90
2018-08-30T01:51:39.841Z,18.90
2018-08-30T01:54:08.911Z,18.80
2018-08-30T01:56:38.027Z,18.80
2018-08-30T01:59:07.114Z,18.70
2018-08-30T02:01:36.182Z,18.80
2018-08-30T02:04:05.271Z,18.80
2018-08-30T02:06:35.140Z,18.80
2018-08-30T02:09:05.391Z,18.90
2018-08-30T02:11:34.416Z,18.90
2018-08-30T02:14:03.433Z,18.80
2018-08-30T02:16:32.481Z,18.90
2018-08-30T02:19:02.414Z,18.90
2018-08-30T02:21:31.457Z,18.80
2018-08-30T02:24:00.506Z,18.80
2018-08-30T02:26:29.611Z,18.80
2018-08-30T02:28:58.618Z,18.80
2018-08-30T02:31:27.659Z,18.70
2018-08-30T02:33:56.704Z,18.60
2018-08-30T02:36:25.756Z,18.50
2018-08-30T02:39:21.339Z,18.60
2018-08-30T02:41:50.397Z,18.50
2018-08-30T02:44:19.516Z,18.60
2018-08-30T02:46:48.609Z,18.60
2018-08-30T02:49:17.727Z,18.60
2018-08-30T02:51:48.240Z,18.50
2018-08-30T02:54:17.358Z,18.40
2018-08-30T02:56:46.444Z,18.30
2018-08-30T02:59:15.541Z,18.20
2018-08-30T03:01:44.593Z,18.10
2018-08-30T03:04:13.685Z,18.00
2018-08-30T03:06:42.706Z,18.00
2018-08-30T03:09:11.726Z,17.90
2018-08-30T03:11:40.829Z,17.80
2018-08-30T03:14:09.972Z,17.60
2018-08-30T03:16:39.034Z,17.60
2018-08-30T03:19:24.138Z,17.60
2018-08-30T03:21:53.300Z,17.60
2018-08-30T03:24:25.516Z,17.40
2018-08-30T03:26:54.707Z,17.40
2018-08-30T03:29:23.895Z,17.30
2018-08-30T03:31:53.073Z,17.30
2018-08-30T03:34:22.166Z,17.30
2018-08-30T03:36:51.327Z,17.20
2018-08-30T03:39:22.036Z,17.20
2018-08-30T03:41:53.577Z,17.20
2018-08-30T03:44:22.756Z,17.20
2018-08-30T03:46:51.796Z,17.20
2018-08-30T03:49:20.879Z,17.10
2018-08-30T03:51:50.039Z,17.00
2018-08-30T03:54:19.101Z,17.00
2018-08-30T03:56:48.158Z,17.10
2018-08-30T03:59:17.209Z,17.00
2018-08-30T04:01:46.229Z,17.00
2018-08-30T04:04:15.433Z,17.00
2018-08-30T04:06:44.709Z,16.90
2018-08-30T04:09:13.835Z,16.90
2018-08-30T04:11:43.009Z,16.90
2018-08-30T04:14:12.356Z,16.80
2018-08-30T04:16:41.427Z,16.80
2018-08-30T04:19:11.121Z,16.80
2018-08-30T04:21:44.224Z,16.90
2018-08-30T04:24:13.470Z,16.80
2018-08-30T04:26:42.627Z,16.80
2018-08-30T04:29:15.403Z,16.80
2018-08-30T04:31:44.589Z,16.90
2018-08-30T04:34:13.709Z,16.80
2018-08-30T04:36:42.917Z,16.80
2018-08-30T04:39:17.855Z,16.80
2018-08-30T04:41:47.938Z,16.80
2018-08-30T04:44:33.929Z,16.90
2018-08-30T04:47:03.822Z,16.90
2018-08-30T04:50:07.183Z,16.80
2018-08-30T04:52:37.467Z,16.90
2018-08-30T04:55:07.552Z,16.90
2018-08-30T04:57:38.407Z,16.90
2018-08-30T05:00:09.219Z,17.00
2018-08-30T05:02:38.514Z,16.90
2018-08-30T05:05:07.783Z,16.90
2018-08-30T05:07:37.335Z,17.00
2018-08-30T05:10:06.884Z,17.00
2018-08-30T05:12:36.040Z,17.00
2018-08-30T05:15:05.634Z,17.00
2018-08-30T05:17:35.278Z,17.00
2018-08-30T05:20:14.417Z,17.00
2018-08-30T05:22:43.524Z,17.10
2018-08-30T05:26:17.976Z,17.10
2018-08-30T05:28:47.101Z,17.10
2018-08-30T05:31:17.162Z,17.10
2018-08-30T05:33:46.395Z,17.00
2018-08-30T05:36:15.825Z,17.00
2018-08-30T05:38:45.363Z,17.00
2018-08-30T05:41:22.660Z,17.00
2018-08-30T05:43:51.787Z,17.00
2018-08-30T05:46:42.137Z,17.00
2018-08-30T05:49:44.104Z,17.00
2018-08-30T05:52:44.506Z,17.10
2018-08-30T05:55:43.759Z,17.10
2018-08-30T05:58:13.064Z,17.10
2018-08-30T06:00:45.954Z,17.20
2018-08-30T06:03:15.022Z,17.20
2018-08-30T06:05:44.555Z,17.20
2018-08-30T06:08:13.720Z,17.30
2018-08-30T06:10:42.837Z,17.30
2018-08-30T06:13:11.941Z,17.30
2018-08-30T06:15:43.679Z,17.20
2018-08-30T06:18:12.903Z,17.30
2018-08-30T06:20:53.133Z,17.30
2018-08-30T06:23:32.878Z,17.30
2018-08-30T06:29:09.220Z,17.30
2018-08-30T06:34:38.879Z,17.40
2018-08-30T06:37:27.811Z,17.40
2018-08-30T06:42:50.299Z,17.40
2018-08-30T06:45:19.400Z,17.40
2018-08-30T06:47:49.000Z,17.30
2018-08-30T06:50:20.466Z,17.30
2018-08-30T06:52:53.275Z,17.30
2018-08-30T06:55:25.586Z,17.30
2018-08-30T06:58:11.330Z,17.30
2018-08-30T07:00:41.206Z,17.30
2018-08-30T07:03:18.393Z,17.40
2018-08-30T07:05:47.644Z,17.40
2018-08-30T07:08:17.416Z,17.30
2018-08-30T07:11:04.338Z,17.30
2018-08-30T07:13:33.990Z,17.20
2018-08-30T07:16:03.345Z,17.40
2018-08-30T07:18:32.990Z,17.50
2018-08-30T07:21:07.624Z,17.50
2018-08-30T07:24:00.020Z,17.50
2018-08-30T07:26:30.723Z,17.50
2018-08-30T07:32:10.949Z,17.40
2018-08-30T07:34:40.150Z,17.40
2018-08-30T07:37:09.378Z,17.40
2018-08-30T07:39:38.492Z,17.50
2018-08-30T07:42:07.698Z,17.50
2018-08-30T07:44:36.954Z,17.50
2018-08-30T07:47:06.327Z,17.40
2018-08-30T07:49:35.849Z,17.40
2018-08-30T07:52:04.977Z,17.50
2018-08-30T07:54:34.161Z,17.50
2018-08-30T07:57:03.216Z,17.50
2018-08-30T07:59:32.499Z,17.50
2018-08-30T08:02:02.530Z,17.40
2018-08-30T08:04:31.611Z,17.50
2018-08-30T08:07:00.697Z,17.50
2018-08-30T08:09:29.784Z,17.50
2018-08-30T08:11:58.858Z,17.50
2018-08-30T08:14:27.918Z,17.60
2018-08-30T08:16:57.008Z,17.60
2018-08-30T08:19:27.160Z,17.70
2018-08-30T08:21:56.237Z,17.70
2018-08-30T08:24:25.322Z,17.80
2018-08-30T08:26:54.396Z,17.70
2018-08-30T08:29:23.459Z,17.70
2018-08-30T08:31:52.613Z,17.60
2018-08-30T08:34:21.759Z,17.70
2018-08-30T08:36:50.826Z,17.70
2018-08-30T08:39:20.021Z,17.70
2018-08-30T08:41:49.092Z,17.70
2018-08-30T08:44:18.212Z,18.00
2018-08-30T08:46:48.161Z,18.00
2018-08-30T08:49:17.234Z,18.00
2018-08-30T08:51:46.390Z,18.00
2018-08-30T08:54:15.627Z,18.10
2018-08-30T08:56:44.901Z,18.20
2018-08-30T08:59:14.076Z,18.20
2018-08-30T09:01:43.146Z,18.10
2018-08-30T09:04:12.203Z,18.10
2018-08-30T09:06:41.367Z,18.00
2018-08-30T09:09:11.961Z,18.20
2018-08-30T09:11:41.801Z,18.20
2018-08-30T09:14:11.130Z,18.10
2018-08-30T09:16:40.257Z,18.10
2018-08-30T09:19:09.397Z,18.20
2018-08-30T09:21:39.497Z,18.40
2018-08-30T09:24:08.577Z,18.40
2018-08-30T09:26:37.651Z,18.40
2018-08-30T09:29:06.820Z,18.50
2018-08-30T09:31:35.872Z,18.50
2018-08-30T09:34:05.152Z,18.60
2018-08-30T09:36:34.246Z,18.50
2018-08-30T09:39:03.413Z,18.50
2018-08-30T09:41:32.682Z,18.50
2018-08-30T09:44:01.760Z,18.40
2018-08-30T09:46:30.839Z,18.30
2018-08-30T09:48:59.995Z,18.40
2018-08-30T09:51:29.067Z,18.40
2018-08-30T09:53:58.195Z,18.50
2018-08-30T09:56:27.381Z,18.30
2018-08-30T09:58:56.992Z,18.20
2018-08-30T10:01:31.492Z,18.30
2018-08-30T10:04:00.580Z,18.30
2018-08-30T10:06:29.964Z,18.60
2018-08-30T10:08:59.493Z,18.60
2018-08-30T10:11:28.585Z,18.80
2018-08-30T10:13:57.975Z,18.80
2018-08-30T10:16:27.302Z,18.70
2018-08-30T10:18:56.623Z,18.50
2018-08-30T10:21:25.701Z,18.60
2018-08-30T10:23:54.845Z,18.60
2018-08-30T10:26:24.124Z,18.70
2018-08-30T10:28:53.843Z,18.80
2018-08-30T10:31:22.955Z,19.00
2018-08-30T10:33:59.708Z,19.00
2018-08-30T10:36:28.841Z,19.30
2018-08-30T10:38:57.953Z,19.30
2018-08-30T10:41:27.268Z,19.30
2018-08-30T10:43:56.342Z,19.30
2018-08-30T10:46:25.418Z,19.10
2018-08-30T10:48:54.483Z,18.90
2018-08-30T10:51:23.553Z,18.70
2018-08-30T10:53:52.631Z,18.50
2018-08-30T10:56:21.711Z,18.30
2018-08-30T10:58:50.741Z,18.10
2018-08-30T11:01:19.788Z,17.90
2018-08-30T11:03:48.953Z,17.80
2018-08-30T11:06:18.182Z,17.50
2018-08-30T11:08:47.239Z,17.30
2018-08-30T11:11:16.326Z,17.20
2018-08-30T11:13:45.615Z,17.10
2018-08-30T11:16:14.666Z,17.00
2018-08-30T11:18:43.843Z,17.00
2018-08-30T11:21:13.087Z,17.00
2018-08-30T11:23:42.238Z,17.00
2018-08-30T11:26:11.413Z,16.90
2018-08-30T11:28:40.628Z,16.80
2018-08-30T11:31:09.924Z,16.90
2018-08-30T11:33:39.042Z,16.90
2018-08-30T11:36:08.129Z,16.80
2018-08-30T11:38:37.419Z,16.80
2018-08-30T11:41:06.646Z,16.90
2018-08-30T11:43:35.884Z,16.90
2018-08-30T11:46:05.038Z,17.00
2018-08-30T11:48:34.132Z,17.00
2018-08-30T11:51:03.341Z,17.00
2018-08-30T11:53:32.383Z,17.00
2018-08-30T11:56:01.535Z,17.00
2018-08-30T11:58:30.638Z,17.10
2018-08-30T12:00:59.748Z,17.00
2018-08-30T12:03:28.817Z,16.90
2018-08-30T12:05:57.895Z,16.90
2018-08-30T12:08:27.121Z,16.80
2018-08-30T12:10:56.228Z,16.70
2018-08-30T12:13:25.395Z,16.80
2018-08-30T12:15:54.443Z,16.80
2018-08-30T12:18:23.587Z,16.90
2018-08-30T12:20:52.885Z,16.90
2018-08-30T12:23:22.794Z,16.80
2018-08-30T12:25:52.470Z,16.80
2018-08-30T12:28:21.817Z,16.70
2018-08-30T12:30:51.143Z,16.70
2018-08-30T12:33:20.409Z,16.70
2018-08-30T12:35:50.240Z,16.70
2018-08-30T12:38:19.382Z,16.70
2018-08-30T12:40:48.867Z,16.70
2018-08-30T12:43:18.152Z,16.70
2018-08-30T12:45:47.327Z,16.80
2018-08-30T12:48:16.537Z,16.80
2018-08-30T12:50:45.711Z,16.70
2018-08-30T12:53:14.820Z,16.60
2018-08-30T12:55:44.018Z,16.70
2018-08-30T12:58:13.216Z,16.60
2018-08-30T13:00:42.188Z,16.70
2018-08-30T13:03:11.363Z,16.60
2018-08-30T13:05:41.426Z,16.60
2018-08-30T13:08:10.230Z,16.50
2018-08-30T13:10:39.469Z,16.40
2018-08-30T13:13:08.819Z,16.50
2018-08-30T13:15:37.785Z,16.50
2018-08-30T13:18:07.069Z,16.50
2018-08-30T13:20:36.562Z,16.50
2018-08-30T13:23:05.592Z,16.50
2018-08-30T13:25:35.231Z,16.60
2018-08-30T13:28:04.497Z,16.50
2018-08-30T13:30:33.980Z,16.60
2018-08-30T13:33:04.817Z,16.60
2018-08-30T13:35:34.346Z,16.50
2018-08-30T13:38:03.730Z,16.50
2018-08-30T13:40:33.155Z,16.60
2018-08-30T13:43:02.654Z,16.60
2018-08-30T13:45:32.131Z,16.60
2018-08-30T13:48:02.125Z,16.60
2018-08-30T13:50:31.377Z,16.60
2018-08-30T13:53:01.493Z,16.70
2018-08-30T13:55:30.797Z,16.70
2018-08-30T13:57:59.970Z,16.60
2018-08-30T14:00:29.451Z,16.60
2018-08-30T14:02:58.056Z,16.60
2018-08-30T14:05:27.201Z,16.50
2018-08-30T14:07:56.281Z,16.50
2018-08-30T14:10:25.536Z,16.50
2018-08-30T14:12:54.474Z,16.50
2018-08-30T14:15:24.904Z,16.40
2018-08-30T14:17:53.778Z,16.40
2018-08-30T14:20:23.755Z,16.40
2018-08-30T14:22:55.485Z,16.40
2018-08-30T14:25:24.635Z,16.30
2018-08-30T14:27:54.735Z,16.20
2018-08-30T14:30:24.044Z,16.10
2018-08-30T14:32:53.174Z,16.10
2018-08-30T14:35:22.459Z,16.10
2018-08-30T14:37:51.548Z,16.20
2018-08-30T14:40:20.814Z,16.20
2018-08-30T14:42:49.762Z,16.30
2018-08-30T14:45:18.835Z,16.40
2018-08-30T14:47:48.129Z,16.50
2018-08-30T14:50:17.167Z,16.60
2018-08-30T14:52:46.261Z,16.70
2018-08-30T14:55:15.444Z,16.80
2018-08-30T14:57:44.749Z,17.00
2018-08-30T15:00:14.018Z,17.00
2018-08-30T15:02:43.085Z,17.10
2018-08-30T15:05:12.363Z,17.20
2018-08-30T15:07:41.413Z,17.20
2018-08-30T15:10:10.541Z,17.30
2018-08-30T15:12:39.663Z,17.30
2018-08-30T15:15:08.762Z,17.40
2018-08-30T15:17:37.875Z,17.40
2018-08-30T15:20:07.624Z,17.50
2018-08-30T15:22:36.982Z,17.50
2018-08-30T15:25:06.277Z,17.50
2018-08-30T15:27:35.641Z,17.60
2018-08-30T15:30:04.976Z,17.60
2018-08-30T15:32:34.771Z,17.60
2018-08-30T15:35:04.081Z,17.70
2018-08-30T15:37:33.592Z,17.80
2018-08-30T15:40:02.989Z,17.70
2018-08-30T15:42:32.111Z,17.80
2018-08-30T15:45:01.214Z,17.80
2018-08-30T15:47:30.407Z,17.80
2018-08-30T15:50:00.801Z,17.70
2018-08-30T15:52:29.951Z,17.70
2018-08-30T15:54:59.066Z,17.80
2018-08-30T15:57:28.222Z,17.80
2018-08-30T15:59:57.547Z,17.80
2018-08-30T16:02:26.744Z,17.80
2018-08-30T16:04:55.913Z,17.80
2018-08-30T16:07:25.126Z,17.90
2018-08-30T16:09:54.358Z,17.90
2018-08-30T16:12:23.799Z,17.90
2018-08-30T16:14:53.242Z,17.90
2018-08-30T16:17:22.692Z,18.00
2018-08-30T16:19:51.723Z,18.00
2018-08-30T16:22:21.997Z,18.00
2018-08-30T16:24:51.215Z,18.10
2018-08-30T16:27:20.996Z,18.00
2018-08-30T16:29:50.072Z,18.10
2018-08-30T16:32:19.221Z,18.00
2018-08-30T16:34:48.367Z,18.10
2018-08-30T16:37:17.426Z,18.20
2018-08-30T16:39:46.528Z,18.20
2018-08-30T16:42:15.666Z,18.30
2018-08-30T16:44:44.753Z,18.40
2018-08-30T16:47:13.848Z,18.40
2018-08-30T16:49:42.862Z,18.30
2018-08-30T16:52:11.997Z,18.30
2018-08-30T16:54:41.055Z,18.20
2018-08-30T16:57:10.427Z,18.10
2018-08-30T16:59:39.520Z,18.00
2018-08-30T17:02:08.838Z,17.90
2018-08-30T17:04:37.989Z,17.90
2018-08-30T17:07:07.486Z,17.80
2018-08-30T17:09:37.451Z,17.80
2018-08-30T17:12:06.852Z,17.60
2018-08-30T17:14:36.000Z,17.50
2018-08-30T17:17:05.495Z,17.40
2018-08-30T17:19:34.721Z,17.40
2018-08-30T17:22:04.017Z,17.30
2018-08-30T17:24:33.207Z,17.20
2018-08-30T17:27:02.384Z,17.10
2018-08-30T17:29:31.596Z,17.10
2018-08-30T17:32:00.629Z,17.00
2018-08-30T17:34:29.759Z,17.00
2018-08-30T17:36:58.936Z,16.90
2018-08-30T17:39:28.281Z,16.90
2018-08-30T17:41:57.448Z,16.80
2018-08-30T17:44:26.798Z,16.70
2018-08-30T17:46:56.613Z,16.70
2018-08-30T17:49:25.706Z,16.60
2018-08-30T17:51:55.266Z,16.60
2018-08-30T17:54:24.776Z,16.50
2018-08-30T17:56:53.882Z,16.50
2018-08-30T17:59:23.961Z,16.50
2018-08-30T18:01:53.093Z,16.40
2018-08-30T18:04:22.270Z,16.40
2018-08-30T18:06:51.478Z,16.30
2018-08-30T18:09:20.718Z,16.20
2018-08-30T18:11:49.967Z,16.20
2018-08-30T18:14:19.308Z,16.20
2018-08-30T18:16:48.556Z,16.10
2018-08-30T18:19:19.463Z,16.00
2018-08-30T18:21:48.679Z,16.00
2018-08-30T18:24:17.955Z,16.00
2018-08-30T18:26:47.391Z,15.90
2018-08-30T18:29:16.808Z,15.90
2018-08-30T18:31:46.185Z,15.80
2018-08-30T18:34:15.588Z,15.80
2018-08-30T18:36:44.937Z,15.70
2018-08-30T18:39:14.253Z,15.70
2018-08-30T18:41:43.402Z,15.60
2018-08-30T18:44:12.559Z,15.60
2018-08-30T18:46:41.891Z,15.60
2018-08-30T18:49:11.188Z,15.60
2018-08-30T18:51:40.315Z,15.50
2018-08-30T18:54:09.533Z,15.50
2018-08-30T18:56:40.669Z,15.50
2018-08-30T18:59:13.017Z,15.50
2018-08-30T19:01:44.986Z,15.40
2018-08-30T19:04:14.316Z,15.40
2018-08-30T19:06:44.076Z,15.40
2018-08-30T19:09:13.359Z,15.40
2018-08-30T19:11:42.985Z,15.30
2018-08-30T19:14:12.210Z,15.30
2018-08-30T19:16:46.835Z,15.20
2018-08-30T19:19:17.986Z,15.20
2018-08-30T19:21:47.157Z,15.20
2018-08-30T19:24:22.773Z,15.20
2018-08-30T19:26:54.343Z,15.10
2018-08-30T19:29:32.002Z,15.10
2018-08-30T19:32:09.403Z,15.10
2018-08-30T19:34:44.533Z,15.00
2018-08-30T19:40:34.230Z,15.00
2018-08-30T19:46:22.331Z,14.90
2018-08-30T19:57:52.175Z,14.70
2018-08-30T20:02:32.132Z,14.70
2018-08-30T20:05:01.448Z,14.60
2018-08-30T20:07:35.025Z,14.50
2018-08-30T20:10:04.921Z,14.50
2018-08-30T20:12:34.035Z,14.50
2018-08-30T20:15:03.735Z,14.50
2018-08-30T20:17:32.814Z,14.50
2018-08-30T20:20:01.954Z,14.40
2018-08-30T20:22:31.176Z,14.40
2018-08-30T20:25:00.334Z,14.40
2018-08-30T20:27:29.512Z,14.40
2018-08-30T20:29:58.650Z,14.40
2018-08-30T20:32:27.749Z,14.30
2018-08-30T20:34:57.400Z,14.30
2018-08-30T20:37:26.627Z,14.30
2018-08-30T20:39:55.785Z,14.30
2018-08-30T20:42:25.016Z,14.30
2018-08-30T20:44:54.270Z,14.30
2018-08-30T20:47:23.603Z,14.20
2018-08-30T20:49:53.014Z,14.20
2018-08-30T20:52:22.513Z,14.20
2018-08-30T20:54:52.025Z,14.20
2018-08-30T20:57:22.397Z,14.10
2018-08-30T20:59:51.719Z,14.10
2018-08-30T21:02:44.535Z,14.10
2018-08-30T21:05:13.866Z,14.10
2018-08-30T21:07:43.034Z,14.00
2018-08-30T21:10:12.195Z,14.00
2018-08-30T21:12:41.332Z,14.00
2018-08-30T21:15:10.465Z,14.00
2018-08-30T21:17:39.616Z,13.90
2018-08-30T21:20:08.743Z,13.90
2018-08-30T21:22:37.921Z,13.90
2018-08-30T21:25:07.198Z,13.90
2018-08-30T21:27:36.387Z,13.90
2018-08-30T21:30:06.048Z,13.80
2018-08-30T21:32:35.248Z,13.80
2018-08-30T21:35:06.684Z,13.70
2018-08-30T21:37:36.056Z,13.70
2018-08-30T21:40:05.284Z,13.70
2018-08-30T21:42:34.438Z,13.70
2018-08-30T21:45:03.591Z,13.70
2018-08-30T21:47:32.809Z,13.70
2018-08-30T21:50:02.118Z,13.70
2018-08-30T21:52:31.438Z,13.70
2018-08-30T21:55:01.818Z,13.70
2018-08-30T21:57:31.079Z,13.60
2018-08-30T22:00:00.462Z,13.60
2018-08-30T22:02:29.615Z,13.60
2018-08-30T22:04:58.643Z,13.60
2018-08-30T22:07:27.802Z,13.60
2018-08-30T22:09:56.839Z,13.50
2018-08-30T22:12:25.886Z,13.50
2018-08-30T22:14:54.919Z,13.40
2018-08-30T22:17:23.961Z,13.40
2018-08-30T22:19:52.999Z,13.40
2018-08-30T22:22:21.999Z,13.40
2018-08-30T22:24:51.059Z,13.30
2018-08-30T22:27:20.061Z,13.30
2018-08-30T22:29:49.155Z,13.30
2018-08-30T22:32:18.190Z,13.30
2018-08-30T22:34:47.280Z,13.30
2018-08-30T22:37:16.337Z,13.20
2018-08-30T22:39:45.416Z,13.20
2018-08-30T22:42:14.463Z,13.20
2018-08-30T22:44:43.567Z,13.20
2018-08-30T22:47:12.695Z,13.20
2018-08-30T22:49:41.780Z,13.10
2018-08-30T22:52:10.925Z,13.10
2018-08-30T22:54:40.063Z,13.20
2018-08-30T22:57:09.237Z,13.10
2018-08-30T22:59:38.347Z,13.10
2018-08-30T23:02:07.427Z,13.00
2018-08-30T23:04:36.509Z,13.00
2018-08-30T23:07:05.683Z,13.00
2018-08-30T23:09:34.904Z,13.00
2018-08-30T23:12:03.961Z,13.00
2018-08-30T23:14:33.100Z,13.00
2018-08-30T23:17:02.134Z,13.00
2018-08-30T23:19:31.247Z,13.00
2018-08-30T23:22:00.297Z,13.00
2018-08-30T23:24:29.323Z,12.90
2018-08-30T23:26:58.358Z,12.90
2018-08-30T23:29:27.515Z,12.90
2018-08-30T23:31:56.575Z,12.90
2018-08-30T23:34:25.637Z,12.90
2018-08-30T23:36:54.932Z,12.80
2018-08-30T23:39:24.144Z,12.80
2018-08-30T23:41:53.223Z,12.80
2018-08-30T23:44:22.340Z,12.80
2018-08-30T23:46:51.474Z,12.70
2018-08-30T23:49:22.401Z,12.70
2018-08-30T23:51:51.719Z,12.70
2018-08-30T23:54:20.881Z,12.70
2018-08-30T23:56:50.121Z,12.70
2018-08-30T23:59:36.137Z,12.60
